sensor_id;sensor_type;location;lat;lon;timestamp;P1;durP1;ratioP1;P2;durP2;ratioP2
9914;SDS011;4996;48.746;9.174;2024-02-21T00:00:55;7.07;;;3.30;;
9914;SDS011;4996;48.746;9.174;2024-02-21T00:03:20;12.47;;;4.40;;
9914;SDS011;4996;48.746;9.174;2024-02-21T00:05:46;12.23;;;4.40;;
9914;SDS011;4996;48.746;9.174;2024-02-21T00:08:11;8.33;;;4.57;;
9914;SDS011;4996;48.746;9.174;2024-02-21T00:10:37;9.07;;;3.40;;
9914;SDS011;4996;48.746;9.174;2024-02-21T00:13:03;10.83;;;3.70;;
9914;SDS011;4996;48.746;9.174;2024-02-21T00:15:28;7.83;;;3.60;;
9914;SDS011;4996;48.746;9.174;2024-02-21T00:17:54;15.37;;;4.53;;
9914;SDS011;4996;48.746;9.174;2024-02-21T00:20:19;6.93;;;4.00;;
9914;SDS011;4996;48.746;9.174;2024-02-21T00:22:45;9.67;;;4.00;;
9914;SDS011;4996;48.746;9.174;2024-02-21T00:25:11;6.60;;;3.87;;
9914;SDS011;4996;48.746;9.174;2024-02-21T00:27:37;7.53;;;3.90;;
9914;SDS011;4996;48.746;9.174;2024-02-21T00:30:04;12.50;;;4.67;;
9914;SDS011;4996;48.746;9.174;2024-02-21T00:32:30;11.53;;;3.10;;
9914;SDS011;4996;48.746;9.174;2024-02-21T00:34:57;9.70;;;4.33;;
9914;SDS011;4996;48.746;9.174;2024-02-21T00:37:22;7.93;;;3.67;;
9914;SDS011;4996;48.746;9.174;2024-02-21T00:39:48;4.80;;;2.93;;
9914;SDS011;4996;48.746;9.174;2024-02-21T00:42:13;8.30;;;4.20;;
9914;SDS011;4996;48.746;9.174;2024-02-21T00:44:39;28.13;;;4.53;;
9914;SDS011;4996;48.746;9.174;2024-02-21T00:47:04;11.00;;;5.27;;
9914;SDS011;4996;48.746;9.174;2024-02-21T00:49:30;14.37;;;4.60;;
9914;SDS011;4996;48.746;9.174;2024-02-21T00:51:56;13.13;;;4.43;;
9914;SDS011;4996;48.746;9.174;2024-02-21T00:54:21;8.20;;;3.50;;
9914;SDS011;4996;48.746;9.174;2024-02-21T00:56:47;7.93;;;3.67;;
9914;SDS011;4996;48.746;9.174;2024-02-21T00:59:13;16.00;;;4.10;;
9914;SDS011;4996;48.746;9.174;2024-02-21T01:01:39;6.17;;;3.03;;
9914;SDS011;4996;48.746;9.174;2024-02-21T01:04:07;8.43;;;3.73;;
9914;SDS011;4996;48.746;9.174;2024-02-21T01:06:34;11.90;;;3.53;;
9914;SDS011;4996;48.746;9.174;2024-02-21T01:08:59;9.50;;;2.90;;
9914;SDS011;4996;48.746;9.174;2024-02-21T01:11:25;7.90;;;3.40;;
9914;SDS011;4996;48.746;9.174;2024-02-21T01:13:50;9.33;;;3.10;;
9914;SDS011;4996;48.746;9.174;2024-02-21T01:16:16;7.83;;;3.13;;
9914;SDS011;4996;48.746;9.174;2024-02-21T01:18:41;5.20;;;2.70;;
9914;SDS011;4996;48.746;9.174;2024-02-21T01:21:07;8.77;;;3.20;;
9914;SDS011;4996;48.746;9.174;2024-02-21T01:23:34;7.17;;;2.80;;
9914;SDS011;4996;48.746;9.174;2024-02-21T01:25:59;11.47;;;3.47;;
9914;SDS011;4996;48.746;9.174;2024-02-21T01:28:25;10.70;;;3.63;;
9914;SDS011;4996;48.746;9.174;2024-02-21T01:30:51;3.90;;;3.03;;
9914;SDS011;4996;48.746;9.174;2024-02-21T01:33:16;10.47;;;3.17;;
9914;SDS011;4996;48.746;9.174;2024-02-21T01:35:42;5.63;;;3.07;;
9914;SDS011;4996;48.746;9.174;2024-02-21T01:38:07;10.30;;;2.57;;
9914;SDS011;4996;48.746;9.174;2024-02-21T01:40:33;5.27;;;2.80;;
9914;SDS011;4996;48.746;9.174;2024-02-21T01:42:58;5.53;;;2.60;;
9914;SDS011;4996;48.746;9.174;2024-02-21T01:45:24;15.17;;;3.00;;
9914;SDS011;4996;48.746;9.174;2024-02-21T01:47:49;6.43;;;2.50;;
9914;SDS011;4996;48.746;9.174;2024-02-21T01:50:15;4.80;;;3.37;;
9914;SDS011;4996;48.746;9.174;2024-02-21T01:52:42;5.43;;;2.00;;
9914;SDS011;4996;48.746;9.174;2024-02-21T01:55:10;7.13;;;2.90;;
9914;SDS011;4996;48.746;9.174;2024-02-21T01:57:39;5.40;;;2.90;;
9914;SDS011;4996;48.746;9.174;2024-02-21T02:00:05;7.90;;;2.17;;
9914;SDS011;4996;48.746;9.174;2024-02-21T02:02:32;4.00;;;2.30;;
9914;SDS011;4996;48.746;9.174;2024-02-21T02:04:57;9.30;;;3.10;;
9914;SDS011;4996;48.746;9.174;2024-02-21T02:07:24;7.90;;;2.80;;
9914;SDS011;4996;48.746;9.174;2024-02-21T02:09:49;6.20;;;3.30;;
9914;SDS011;4996;48.746;9.174;2024-02-21T02:12:15;7.50;;;2.77;;
9914;SDS011;4996;48.746;9.174;2024-02-21T02:14:40;6.67;;;2.67;;
9914;SDS011;4996;48.746;9.174;2024-02-21T02:17:06;4.87;;;2.90;;
9914;SDS011;4996;48.746;9.174;2024-02-21T02:19:32;13.60;;;2.57;;
9914;SDS011;4996;48.746;9.174;2024-02-21T02:22:03;6.20;;;3.10;;
9914;SDS011;4996;48.746;9.174;2024-02-21T02:24:37;3.90;;;2.40;;
9914;SDS011;4996;48.746;9.174;2024-02-21T02:27:03;5.27;;;2.50;;
9914;SDS011;4996;48.746;9.174;2024-02-21T02:29:28;7.30;;;2.70;;
9914;SDS011;4996;48.746;9.174;2024-02-21T02:31:57;5.93;;;2.20;;
9914;SDS011;4996;48.746;9.174;2024-02-21T02:34:22;5.93;;;3.03;;
9914;SDS011;4996;48.746;9.174;2024-02-21T02:36:48;5.93;;;3.20;;
9914;SDS011;4996;48.746;9.174;2024-02-21T02:39:14;6.37;;;2.60;;
9914;SDS011;4996;48.746;9.174;2024-02-21T02:41:39;9.63;;;2.80;;
9914;SDS011;4996;48.746;9.174;2024-02-21T02:44:05;9.13;;;2.60;;
9914;SDS011;4996;48.746;9.174;2024-02-21T02:46:30;6.57;;;2.17;;
9914;SDS011;4996;48.746;9.174;2024-02-21T02:48:56;7.03;;;2.50;;
9914;SDS011;4996;48.746;9.174;2024-02-21T02:51:21;8.27;;;2.83;;
9914;SDS011;4996;48.746;9.174;2024-02-21T02:53:47;6.70;;;2.27;;
9914;SDS011;4996;48.746;9.174;2024-02-21T02:56:15;7.07;;;3.27;;
9914;SDS011;4996;48.746;9.174;2024-02-21T02:58:42;9.07;;;2.63;;
9914;SDS011;4996;48.746;9.174;2024-02-21T03:01:08;3.40;;;2.13;;
9914;SDS011;4996;48.746;9.174;2024-02-21T03:03:34;7.10;;;2.80;;
9914;SDS011;4996;48.746;9.174;2024-02-21T03:05:59;4.40;;;2.73;;
9914;SDS011;4996;48.746;9.174;2024-02-21T03:08:25;7.73;;;2.77;;
9914;SDS011;4996;48.746;9.174;2024-02-21T03:10:51;3.97;;;2.33;;
9914;SDS011;4996;48.746;9.174;2024-02-21T03:13:16;7.37;;;2.83;;
9914;SDS011;4996;48.746;9.174;2024-02-21T03:15:42;4.53;;;2.30;;
9914;SDS011;4996;48.746;9.174;2024-02-21T03:18:07;12.57;;;3.00;;
9914;SDS011;4996;48.746;9.174;2024-02-21T03:20:33;12.40;;;3.23;;
9914;SDS011;4996;48.746;9.174;2024-02-21T03:22:58;8.10;;;2.30;;
9914;SDS011;4996;48.746;9.174;2024-02-21T03:25:24;7.53;;;2.53;;
9914;SDS011;4996;48.746;9.174;2024-02-21T03:27:49;6.53;;;2.63;;
9914;SDS011;4996;48.746;9.174;2024-02-21T03:30:16;14.00;;;3.43;;
9914;SDS011;4996;48.746;9.174;2024-02-21T03:32:42;7.87;;;3.47;;
9914;SDS011;4996;48.746;9.174;2024-02-21T03:35:07;7.13;;;2.30;;
9914;SDS011;4996;48.746;9.174;2024-02-21T03:37:33;12.97;;;3.57;;
9914;SDS011;4996;48.746;9.174;2024-02-21T03:39:58;6.33;;;3.87;;
9914;SDS011;4996;48.746;9.174;2024-02-21T03:42:24;6.93;;;3.10;;
9914;SDS011;4996;48.746;9.174;2024-02-21T03:44:50;8.07;;;2.70;;
9914;SDS011;4996;48.746;9.174;2024-02-21T03:47:15;6.60;;;2.57;;
9914;SDS011;4996;48.746;9.174;2024-02-21T03:49:41;6.10;;;2.77;;
9914;SDS011;4996;48.746;9.174;2024-02-21T03:52:07;6.30;;;2.37;;
9914;SDS011;4996;48.746;9.174;2024-02-21T03:54:33;4.47;;;2.33;;
9914;SDS011;4996;48.746;9.174;2024-02-21T03:56:58;14.93;;;3.10;;
9914;SDS011;4996;48.746;9.174;2024-02-21T03:59:24;7.80;;;2.80;;
9914;SDS011;4996;48.746;9.174;2024-02-21T04:01:53;4.93;;;2.47;;
9914;SDS011;4996;48.746;9.174;2024-02-21T04:04:18;4.03;;;2.43;;
9914;SDS011;4996;48.746;9.174;2024-02-21T04:06:50;4.20;;;2.23;;
9914;SDS011;4996;48.746;9.174;2024-02-21T04:09:16;6.90;;;2.63;;
9914;SDS011;4996;48.746;9.174;2024-02-21T04:11:42;11.90;;;2.37;;
9914;SDS011;4996;48.746;9.174;2024-02-21T04:14:08;14.17;;;3.80;;
9914;SDS011;4996;48.746;9.174;2024-02-21T04:16:34;8.13;;;2.30;;
9914;SDS011;4996;48.746;9.174;2024-02-21T04:18:59;8.30;;;3.17;;
9914;SDS011;4996;48.746;9.174;2024-02-21T04:21:26;8.47;;;3.07;;
9914;SDS011;4996;48.746;9.174;2024-02-21T04:23:52;5.80;;;2.97;;
9914;SDS011;4996;48.746;9.174;2024-02-21T04:26:17;7.27;;;2.40;;
9914;SDS011;4996;48.746;9.174;2024-02-21T04:28:44;4.17;;;2.60;;
9914;SDS011;4996;48.746;9.174;2024-02-21T04:31:10;4.37;;;2.43;;
9914;SDS011;4996;48.746;9.174;2024-02-21T04:33:35;4.03;;;2.10;;
9914;SDS011;4996;48.746;9.174;2024-02-21T04:36:01;5.63;;;2.47;;
9914;SDS011;4996;48.746;9.174;2024-02-21T04:38:27;5.00;;;2.03;;
9914;SDS011;4996;48.746;9.174;2024-02-21T04:40:53;11.00;;;3.00;;
9914;SDS011;4996;48.746;9.174;2024-02-21T04:43:20;8.17;;;2.57;;
9914;SDS011;4996;48.746;9.174;2024-02-21T04:45:45;3.57;;;1.93;;
9914;SDS011;4996;48.746;9.174;2024-02-21T04:48:11;6.30;;;2.70;;
9914;SDS011;4996;48.746;9.174;2024-02-21T04:50:36;11.07;;;2.40;;
9914;SDS011;4996;48.746;9.174;2024-02-21T04:53:02;6.00;;;2.43;;
9914;SDS011;4996;48.746;9.174;2024-02-21T04:55:27;9.70;;;2.53;;
9914;SDS011;4996;48.746;9.174;2024-02-21T04:57:53;6.57;;;2.27;;
9914;SDS011;4996;48.746;9.174;2024-02-21T05:00:19;4.77;;;2.17;;
9914;SDS011;4996;48.746;9.174;2024-02-21T05:02:44;4.00;;;1.87;;
9914;SDS011;4996;48.746;9.174;2024-02-21T05:05:10;4.77;;;2.00;;
9914;SDS011;4996;48.746;9.174;2024-02-21T05:07:35;8.30;;;2.90;;
9914;SDS011;4996;48.746;9.174;2024-02-21T05:10:01;4.57;;;1.70;;
9914;SDS011;4996;48.746;9.174;2024-02-21T05:12:26;6.60;;;2.57;;
9914;SDS011;4996;48.746;9.174;2024-02-21T05:14:52;4.50;;;2.17;;
9914;SDS011;4996;48.746;9.174;2024-02-21T05:17:17;7.67;;;2.97;;
9914;SDS011;4996;48.746;9.174;2024-02-21T05:19:43;10.27;;;2.30;;
9914;SDS011;4996;48.746;9.174;2024-02-21T05:22:08;4.47;;;2.30;;
9914;SDS011;4996;48.746;9.174;2024-02-21T05:24:34;4.77;;;2.50;;
9914;SDS011;4996;48.746;9.174;2024-02-21T05:27:00;13.47;;;3.40;;
9914;SDS011;4996;48.746;9.174;2024-02-21T05:29:25;7.27;;;2.30;;
9914;SDS011;4996;48.746;9.174;2024-02-21T05:34:19;8.77;;;2.90;;
9914;SDS011;4996;48.746;9.174;2024-02-21T05:36:45;3.60;;;2.00;;
9914;SDS011;4996;48.746;9.174;2024-02-21T05:39:11;8.03;;;3.00;;
9914;SDS011;4996;48.746;9.174;2024-02-21T05:41:40;4.53;;;2.40;;
9914;SDS011;4996;48.746;9.174;2024-02-21T05:44:05;3.10;;;2.00;;
9914;SDS011;4996;48.746;9.174;2024-02-21T05:46:31;4.90;;;1.93;;
9914;SDS011;4996;48.746;9.174;2024-02-21T05:48:57;10.87;;;4.00;;
9914;SDS011;4996;48.746;9.174;2024-02-21T05:51:22;9.00;;;2.90;;
9914;SDS011;4996;48.746;9.174;2024-02-21T05:53:48;8.17;;;2.70;;
9914;SDS011;4996;48.746;9.174;2024-02-21T05:56:13;3.53;;;2.10;;
9914;SDS011;4996;48.746;9.174;2024-02-21T05:58:39;8.90;;;2.57;;
9914;SDS011;4996;48.746;9.174;2024-02-21T06:01:05;6.50;;;2.70;;
9914;SDS011;4996;48.746;9.174;2024-02-21T06:03:34;8.17;;;2.43;;
9914;SDS011;4996;48.746;9.174;2024-02-21T06:06:01;2.93;;;2.00;;
9914;SDS011;4996;48.746;9.174;2024-02-21T06:08:27;5.50;;;2.57;;
9914;SDS011;4996;48.746;9.174;2024-02-21T06:10:53;5.40;;;2.57;;
9914;SDS011;4996;48.746;9.174;2024-02-21T06:13:22;8.00;;;3.07;;
9914;SDS011;4996;48.746;9.174;2024-02-21T06:15:48;11.97;;;2.90;;
9914;SDS011;4996;48.746;9.174;2024-02-21T06:18:15;9.50;;;2.27;;
9914;SDS011;4996;48.746;9.174;2024-02-21T06:20:44;4.80;;;2.60;;
9914;SDS011;4996;48.746;9.174;2024-02-21T06:23:11;10.70;;;2.73;;
9914;SDS011;4996;48.746;9.174;2024-02-21T06:25:37;14.57;;;2.50;;
9914;SDS011;4996;48.746;9.174;2024-02-21T06:28:03;4.40;;;2.13;;
9914;SDS011;4996;48.746;9.174;2024-02-21T06:30:29;3.70;;;2.30;;
9914;SDS011;4996;48.746;9.174;2024-02-21T06:32:55;3.43;;;1.90;;
9914;SDS011;4996;48.746;9.174;2024-02-21T06:35:21;7.30;;;2.13;;
9914;SDS011;4996;48.746;9.174;2024-02-21T06:37:49;7.67;;;3.00;;
9914;SDS011;4996;48.746;9.174;2024-02-21T06:40:16;4.03;;;2.00;;
9914;SDS011;4996;48.746;9.174;2024-02-21T06:42:48;7.03;;;3.80;;
9914;SDS011;4996;48.746;9.174;2024-02-21T06:45:14;9.80;;;3.03;;
9914;SDS011;4996;48.746;9.174;2024-02-21T06:47:40;3.90;;;2.17;;
9914;SDS011;4996;48.746;9.174;2024-02-21T06:50:06;13.10;;;3.63;;
9914;SDS011;4996;48.746;9.174;2024-02-21T06:52:33;8.80;;;3.23;;
9914;SDS011;4996;48.746;9.174;2024-02-21T06:54:59;8.97;;;3.03;;
9914;SDS011;4996;48.746;9.174;2024-02-21T06:57:25;3.77;;;2.30;;
9914;SDS011;4996;48.746;9.174;2024-02-21T06:59:51;9.10;;;2.33;;
9914;SDS011;4996;48.746;9.174;2024-02-21T07:02:17;6.43;;;2.37;;
9914;SDS011;4996;48.746;9.174;2024-02-21T07:04:43;3.63;;;2.00;;
9914;SDS011;4996;48.746;9.174;2024-02-21T07:07:08;5.20;;;2.37;;
9914;SDS011;4996;48.746;9.174;2024-02-21T07:09:34;3.27;;;2.50;;
9914;SDS011;4996;48.746;9.174;2024-02-21T07:12:00;4.40;;;2.60;;
9914;SDS011;4996;48.746;9.174;2024-02-21T07:14:27;10.90;;;2.40;;
9914;SDS011;4996;48.746;9.174;2024-02-21T07:16:53;6.03;;;3.00;;
9914;SDS011;4996;48.746;9.174;2024-02-21T07:19:19;6.27;;;2.40;;
9914;SDS011;4996;48.746;9.174;2024-02-21T07:21:45;4.30;;;2.73;;
9914;SDS011;4996;48.746;9.174;2024-02-21T07:24:10;16.63;;;2.10;;
9914;SDS011;4996;48.746;9.174;2024-02-21T07:26:36;7.30;;;2.60;;
9914;SDS011;4996;48.746;9.174;2024-02-21T07:29:01;12.20;;;3.53;;
9914;SDS011;4996;48.746;9.174;2024-02-21T07:31:27;4.00;;;2.90;;
9914;SDS011;4996;48.746;9.174;2024-02-21T07:33:53;6.40;;;2.17;;
9914;SDS011;4996;48.746;9.174;2024-02-21T07:36:28;3.20;;;2.33;;
9914;SDS011;4996;48.746;9.174;2024-02-21T07:38:58;5.10;;;2.23;;
9914;SDS011;4996;48.746;9.174;2024-02-21T07:41:24;5.20;;;2.60;;
9914;SDS011;4996;48.746;9.174;2024-02-21T07:43:50;9.70;;;2.47;;
9914;SDS011;4996;48.746;9.174;2024-02-21T07:46:17;7.37;;;3.10;;
9914;SDS011;4996;48.746;9.174;2024-02-21T07:48:43;3.80;;;1.93;;
9914;SDS011;4996;48.746;9.174;2024-02-21T07:51:10;6.27;;;2.03;;
9914;SDS011;4996;48.746;9.174;2024-02-21T07:53:35;6.23;;;2.20;;
9914;SDS011;4996;48.746;9.174;2024-02-21T07:56:01;4.50;;;2.10;;
9914;SDS011;4996;48.746;9.174;2024-02-21T07:58:26;3.90;;;2.40;;
9914;SDS011;4996;48.746;9.174;2024-02-21T08:00:52;10.70;;;3.00;;
9914;SDS011;4996;48.746;9.174;2024-02-21T08:03:17;12.40;;;2.83;;
9914;SDS011;4996;48.746;9.174;2024-02-21T08:05:43;5.93;;;2.60;;
9914;SDS011;4996;48.746;9.174;2024-02-21T08:08:08;8.37;;;2.10;;
9914;SDS011;4996;48.746;9.174;2024-02-21T08:10:34;7.70;;;3.00;;
9914;SDS011;4996;48.746;9.174;2024-02-21T08:12:59;9.20;;;2.53;;
9914;SDS011;4996;48.746;9.174;2024-02-21T08:15:25;6.03;;;2.90;;
9914;SDS011;4996;48.746;9.174;2024-02-21T08:17:54;3.30;;;2.13;;
9914;SDS011;4996;48.746;9.174;2024-02-21T08:20:26;8.20;;;2.23;;
9914;SDS011;4996;48.746;9.174;2024-02-21T08:22:52;4.67;;;1.80;;
9914;SDS011;4996;48.746;9.174;2024-02-21T08:25:17;10.23;;;2.17;;
9914;SDS011;4996;48.746;9.174;2024-02-21T08:27:43;6.00;;;1.80;;
9914;SDS011;4996;48.746;9.174;2024-02-21T08:30:09;5.37;;;2.43;;
9914;SDS011;4996;48.746;9.174;2024-02-21T08:32:36;7.07;;;2.07;;
9914;SDS011;4996;48.746;9.174;2024-02-21T08:35:01;6.20;;;2.47;;
9914;SDS011;4996;48.746;9.174;2024-02-21T08:37:28;3.40;;;1.83;;
9914;SDS011;4996;48.746;9.174;2024-02-21T08:39:53;9.00;;;2.47;;
9914;SDS011;4996;48.746;9.174;2024-02-21T08:42:19;4.60;;;2.40;;
9914;SDS011;4996;48.746;9.174;2024-02-21T08:44:44;4.20;;;2.30;;
9914;SDS011;4996;48.746;9.174;2024-02-21T08:47:10;5.80;;;2.90;;
9914;SDS011;4996;48.746;9.174;2024-02-21T08:49:36;12.53;;;2.47;;
9914;SDS011;4996;48.746;9.174;2024-02-21T08:52:02;6.97;;;3.30;;
9914;SDS011;4996;48.746;9.174;2024-02-21T08:54:28;4.53;;;1.70;;
9914;SDS011;4996;48.746;9.174;2024-02-21T08:56:53;4.33;;;2.27;;
9914;SDS011;4996;48.746;9.174;2024-02-21T08:59:19;9.27;;;2.30;;
9914;SDS011;4996;48.746;9.174;2024-02-21T09:01:45;4.43;;;2.03;;
9914;SDS011;4996;48.746;9.174;2024-02-21T09:04:11;8.53;;;2.27;;
9914;SDS011;4996;48.746;9.174;2024-02-21T09:06:37;5.43;;;2.17;;
9914;SDS011;4996;48.746;9.174;2024-02-21T09:09:06;5.33;;;1.90;;
9914;SDS011;4996;48.746;9.174;2024-02-21T09:11:33;5.83;;;2.10;;
9914;SDS011;4996;48.746;9.174;2024-02-21T09:13:59;5.90;;;2.67;;
9914;SDS011;4996;48.746;9.174;2024-02-21T09:16:24;13.30;;;2.40;;
9914;SDS011;4996;48.746;9.174;2024-02-21T09:18:50;3.70;;;2.77;;
9914;SDS011;4996;48.746;9.174;2024-02-21T09:21:15;4.07;;;1.90;;
9914;SDS011;4996;48.746;9.174;2024-02-21T09:23:41;7.60;;;1.67;;
9914;SDS011;4996;48.746;9.174;2024-02-21T09:26:07;4.00;;;1.70;;
9914;SDS011;4996;48.746;9.174;2024-02-21T09:28:35;3.60;;;1.70;;
9914;SDS011;4996;48.746;9.174;2024-02-21T09:31:00;4.77;;;2.10;;
9914;SDS011;4996;48.746;9.174;2024-02-21T09:33:26;6.43;;;2.40;;
9914;SDS011;4996;48.746;9.174;2024-02-21T09:35:52;2.90;;;1.27;;
9914;SDS011;4996;48.746;9.174;2024-02-21T09:38:18;6.67;;;1.87;;
9914;SDS011;4996;48.746;9.174;2024-02-21T09:40:43;4.70;;;1.60;;
9914;SDS011;4996;48.746;9.174;2024-02-21T09:43:09;4.70;;;1.90;;
9914;SDS011;4996;48.746;9.174;2024-02-21T09:45:34;5.30;;;1.90;;
9914;SDS011;4996;48.746;9.174;2024-02-21T09:51:07;5.30;;;1.63;;
9914;SDS011;4996;48.746;9.174;2024-02-21T09:53:35;4.67;;;1.73;;
9914;SDS011;4996;48.746;9.174;2024-02-21T09:56:03;6.90;;;1.87;;
9914;SDS011;4996;48.746;9.174;2024-02-21T09:58:32;3.40;;;1.57;;
9914;SDS011;4996;48.746;9.174;2024-02-21T10:00:59;5.33;;;1.53;;
9914;SDS011;4996;48.746;9.174;2024-02-21T10:03:25;4.93;;;1.60;;
9914;SDS011;4996;48.746;9.174;2024-02-21T10:05:50;3.20;;;1.37;;
9914;SDS011;4996;48.746;9.174;2024-02-21T10:08:16;6.53;;;1.77;;
9914;SDS011;4996;48.746;9.174;2024-02-21T10:10:43;13.30;;;1.73;;
9914;SDS011;4996;48.746;9.174;2024-02-21T10:13:09;3.30;;;1.50;;
9914;SDS011;4996;48.746;9.174;2024-02-21T10:15:36;5.40;;;1.70;;
9914;SDS011;4996;48.746;9.174;2024-02-21T10:18:02;6.20;;;1.90;;
9914;SDS011;4996;48.746;9.174;2024-02-21T10:20:31;5.90;;;1.90;;
9914;SDS011;4996;48.746;9.174;2024-02-21T10:23:01;3.60;;;1.90;;
9914;SDS011;4996;48.746;9.174;2024-02-21T10:25:28;2.80;;;1.80;;
9914;SDS011;4996;48.746;9.174;2024-02-21T10:27:55;7.20;;;1.40;;
9914;SDS011;4996;48.746;9.174;2024-02-21T10:30:21;3.53;;;1.70;;
9914;SDS011;4996;48.746;9.174;2024-02-21T10:32:52;5.23;;;2.13;;
9914;SDS011;4996;48.746;9.174;2024-02-21T10:35:32;7.70;;;1.77;;
9914;SDS011;4996;48.746;9.174;2024-02-21T10:37:58;3.93;;;1.90;;
9914;SDS011;4996;48.746;9.174;2024-02-21T10:40:25;3.70;;;1.60;;
9914;SDS011;4996;48.746;9.174;2024-02-21T10:42:58;3.10;;;1.50;;
9914;SDS011;4996;48.746;9.174;2024-02-21T10:45:31;4.97;;;1.60;;
9914;SDS011;4996;48.746;9.174;2024-02-21T10:53:34;6.30;;;1.83;;
9914;SDS011;4996;48.746;9.174;2024-02-21T10:56:10;3.40;;;1.50;;
9914;SDS011;4996;48.746;9.174;2024-02-21T10:58:51;2.77;;;1.60;;
9914;SDS011;4996;48.746;9.174;2024-02-21T11:01:18;5.40;;;1.73;;
9914;SDS011;4996;48.746;9.174;2024-02-21T11:03:44;3.43;;;1.57;;
9914;SDS011;4996;48.746;9.174;2024-02-21T11:06:11;8.70;;;1.90;;
9914;SDS011;4996;48.746;9.174;2024-02-21T11:08:38;2.30;;;1.40;;
9914;SDS011;4996;48.746;9.174;2024-02-21T11:11:04;6.60;;;1.20;;
9914;SDS011;4996;48.746;9.174;2024-02-21T11:13:40;4.60;;;1.43;;
9914;SDS011;4996;48.746;9.174;2024-02-21T11:16:09;6.70;;;1.53;;
9914;SDS011;4996;48.746;9.174;2024-02-21T11:18:39;5.60;;;2.50;;
9914;SDS011;4996;48.746;9.174;2024-02-21T11:21:04;3.67;;;1.50;;
9914;SDS011;4996;48.746;9.174;2024-02-21T11:23:30;2.43;;;1.43;;
9914;SDS011;4996;48.746;9.174;2024-02-21T11:26:08;7.77;;;1.70;;
9914;SDS011;4996;48.746;9.174;2024-02-21T11:28:35;8.23;;;2.13;;
9914;SDS011;4996;48.746;9.174;2024-02-21T11:31:09;6.03;;;2.57;;
9914;SDS011;4996;48.746;9.174;2024-02-21T11:33:39;4.60;;;1.90;;
9914;SDS011;4996;48.746;9.174;2024-02-21T11:36:06;8.40;;;2.13;;
9914;SDS011;4996;48.746;9.174;2024-02-21T11:38:35;2.60;;;1.40;;
9914;SDS011;4996;48.746;9.174;2024-02-21T11:41:01;4.13;;;1.33;;
9914;SDS011;4996;48.746;9.174;2024-02-21T11:43:27;6.87;;;1.37;;
9914;SDS011;4996;48.746;9.174;2024-02-21T11:46:00;3.30;;;1.33;;
9914;SDS011;4996;48.746;9.174;2024-02-21T11:48:26;3.57;;;1.37;;
9914;SDS011;4996;48.746;9.174;2024-02-21T11:50:55;2.37;;;1.10;;
9914;SDS011;4996;48.746;9.174;2024-02-21T11:53:21;2.40;;;1.07;;
9914;SDS011;4996;48.746;9.174;2024-02-21T11:55:47;5.77;;;1.83;;
9914;SDS011;4996;48.746;9.174;2024-02-21T11:58:13;4.13;;;1.47;;
9914;SDS011;4996;48.746;9.174;2024-02-21T12:00:40;1.73;;;0.90;;
9914;SDS011;4996;48.746;9.174;2024-02-21T12:03:06;2.33;;;1.10;;
9914;SDS011;4996;48.746;9.174;2024-02-21T12:05:32;4.60;;;1.40;;
9914;SDS011;4996;48.746;9.174;2024-02-21T12:07:57;3.70;;;1.20;;
9914;SDS011;4996;48.746;9.174;2024-02-21T12:10:23;2.80;;;1.77;;
9914;SDS011;4996;48.746;9.174;2024-02-21T12:12:51;1.63;;;1.00;;
9914;SDS011;4996;48.746;9.174;2024-02-21T12:15:18;3.13;;;1.27;;
9914;SDS011;4996;48.746;9.174;2024-02-21T12:17:43;3.70;;;1.33;;
9914;SDS011;4996;48.746;9.174;2024-02-21T12:20:10;4.80;;;1.10;;
9914;SDS011;4996;48.746;9.174;2024-02-21T12:22:36;3.20;;;1.67;;
9914;SDS011;4996;48.746;9.174;2024-02-21T12:25:07;3.50;;;1.27;;
9914;SDS011;4996;48.746;9.174;2024-02-21T12:27:43;1.93;;;1.00;;
9914;SDS011;4996;48.746;9.174;2024-02-21T12:30:08;4.17;;;1.20;;
9914;SDS011;4996;48.746;9.174;2024-02-21T12:32:35;2.20;;;1.07;;
9914;SDS011;4996;48.746;9.174;2024-02-21T12:35:01;1.10;;;0.97;;
9914;SDS011;4996;48.746;9.174;2024-02-21T12:37:27;3.60;;;1.30;;
9914;SDS011;4996;48.746;9.174;2024-02-21T12:39:53;4.23;;;1.33;;
9914;SDS011;4996;48.746;9.174;2024-02-21T12:42:18;2.70;;;1.23;;
9914;SDS011;4996;48.746;9.174;2024-02-21T12:44:44;6.10;;;1.67;;
9914;SDS011;4996;48.746;9.174;2024-02-21T12:47:09;2.37;;;1.17;;
9914;SDS011;4996;48.746;9.174;2024-02-21T12:49:35;2.10;;;1.13;;
9914;SDS011;4996;48.746;9.174;2024-02-21T12:52:01;2.93;;;1.03;;
9914;SDS011;4996;48.746;9.174;2024-02-21T12:54:26;1.70;;;1.00;;
9914;SDS011;4996;48.746;9.174;2024-02-21T12:56:52;1.70;;;1.30;;
9914;SDS011;4996;48.746;9.174;2024-02-21T12:59:17;3.33;;;1.20;;
9914;SDS011;4996;48.746;9.174;2024-02-21T13:01:43;2.37;;;1.20;;
9914;SDS011;4996;48.746;9.174;2024-02-21T13:04:08;3.43;;;1.20;;
9914;SDS011;4996;48.746;9.174;2024-02-21T13:06:34;2.47;;;1.10;;
9914;SDS011;4996;48.746;9.174;2024-02-21T13:09:00;1.60;;;0.67;;
9914;SDS011;4996;48.746;9.174;2024-02-21T13:11:28;2.83;;;1.03;;
9914;SDS011;4996;48.746;9.174;2024-02-21T13:13:55;2.43;;;1.20;;
9914;SDS011;4996;48.746;9.174;2024-02-21T13:16:21;1.60;;;0.90;;
9914;SDS011;4996;48.746;9.174;2024-02-21T13:18:47;1.80;;;1.00;;
9914;SDS011;4996;48.746;9.174;2024-02-21T13:21:13;3.27;;;1.20;;
9914;SDS011;4996;48.746;9.174;2024-02-21T13:23:39;3.33;;;1.47;;
9914;SDS011;4996;48.746;9.174;2024-02-21T13:26:05;2.10;;;1.07;;
9914;SDS011;4996;48.746;9.174;2024-02-21T13:28:30;5.33;;;1.40;;
9914;SDS011;4996;48.746;9.174;2024-02-21T13:30:56;1.40;;;0.80;;
9914;SDS011;4996;48.746;9.174;2024-02-21T13:33:22;5.17;;;1.23;;
9914;SDS011;4996;48.746;9.174;2024-02-21T13:35:48;3.07;;;1.20;;
9914;SDS011;4996;48.746;9.174;2024-02-21T13:38:13;5.40;;;1.20;;
9914;SDS011;4996;48.746;9.174;2024-02-21T13:40:39;3.93;;;1.10;;
9914;SDS011;4996;48.746;9.174;2024-02-21T13:43:07;3.07;;;1.07;;
9914;SDS011;4996;48.746;9.174;2024-02-21T13:45:32;3.87;;;1.13;;
9914;SDS011;4996;48.746;9.174;2024-02-21T13:47:58;4.67;;;1.10;;
9914;SDS011;4996;48.746;9.174;2024-02-21T13:50:27;2.67;;;0.93;;
9914;SDS011;4996;48.746;9.174;2024-02-21T13:52:55;4.70;;;1.33;;
9914;SDS011;4996;48.746;9.174;2024-02-21T13:55:21;4.60;;;1.00;;
9914;SDS011;4996;48.746;9.174;2024-02-21T13:57:53;1.77;;;0.77;;
9914;SDS011;4996;48.746;9.174;2024-02-21T14:00:18;2.10;;;1.13;;
9914;SDS011;4996;48.746;9.174;2024-02-21T14:02:46;2.77;;;1.07;;
9914;SDS011;4996;48.746;9.174;2024-02-21T14:05:11;2.70;;;1.30;;
9914;SDS011;4996;48.746;9.174;2024-02-21T14:07:38;2.63;;;1.00;;
9914;SDS011;4996;48.746;9.174;2024-02-21T14:10:04;1.77;;;1.10;;
9914;SDS011;4996;48.746;9.174;2024-02-21T14:12:29;4.23;;;1.10;;
9914;SDS011;4996;48.746;9.174;2024-02-21T14:14:56;1.77;;;1.03;;
9914;SDS011;4996;48.746;9.174;2024-02-21T14:17:23;0.80;;;0.77;;
9914;SDS011;4996;48.746;9.174;2024-02-21T14:19:49;5.67;;;1.00;;
9914;SDS011;4996;48.746;9.174;2024-02-21T14:22:16;1.57;;;1.40;;
9914;SDS011;4996;48.746;9.174;2024-02-21T14:24:42;1.57;;;0.87;;
9914;SDS011;4996;48.746;9.174;2024-02-21T14:27:07;1.70;;;0.90;;
9914;SDS011;4996;48.746;9.174;2024-02-21T14:29:33;1.70;;;1.10;;
9914;SDS011;4996;48.746;9.174;2024-02-21T14:31:59;3.60;;;2.00;;
9914;SDS011;4996;48.746;9.174;2024-02-21T14:34:25;3.27;;;1.63;;
9914;SDS011;4996;48.746;9.174;2024-02-21T14:36:51;5.37;;;1.30;;
9914;SDS011;4996;48.746;9.174;2024-02-21T14:39:17;2.40;;;1.00;;
9914;SDS011;4996;48.746;9.174;2024-02-21T14:41:42;7.97;;;1.63;;
9914;SDS011;4996;48.746;9.174;2024-02-21T14:44:08;2.47;;;0.80;;
9914;SDS011;4996;48.746;9.174;2024-02-21T14:46:34;3.53;;;1.60;;
9914;SDS011;4996;48.746;9.174;2024-02-21T14:49:02;2.47;;;1.20;;
9914;SDS011;4996;48.746;9.174;2024-02-21T14:51:28;2.70;;;1.10;;
9914;SDS011;4996;48.746;9.174;2024-02-21T14:53:54;2.50;;;1.17;;
9914;SDS011;4996;48.746;9.174;2024-02-21T14:56:20;2.70;;;1.13;;
9914;SDS011;4996;48.746;9.174;2024-02-21T14:58:45;1.77;;;0.80;;
9914;SDS011;4996;48.746;9.174;2024-02-21T15:01:12;1.60;;;0.97;;
9914;SDS011;4996;48.746;9.174;2024-02-21T15:03:38;3.90;;;1.23;;
9914;SDS011;4996;48.746;9.174;2024-02-21T15:06:03;1.47;;;0.90;;
9914;SDS011;4996;48.746;9.174;2024-02-21T15:08:29;5.60;;;3.00;;
9914;SDS011;4996;48.746;9.174;2024-02-21T15:10:54;6.63;;;1.43;;
9914;SDS011;4996;48.746;9.174;2024-02-21T15:13:20;2.23;;;1.20;;
9914;SDS011;4996;48.746;9.174;2024-02-21T15:15:47;1.10;;;0.83;;
9914;SDS011;4996;48.746;9.174;2024-02-21T15:18:13;1.27;;;1.10;;
9914;SDS011;4996;48.746;9.174;2024-02-21T15:20:39;6.90;;;1.30;;